Terminal Aerodrome Forecast
Issued by NWS Albany, NY

Home | Current Version | Previous Version | Text Only | Print | Product List | Glossary On
Versions: 1 2 3 4 5 6 7 8 9 10 11 12 13 14 15 16
299
FTUS41 KALY 291141
TAFALB
TAF
KALB 291141Z 2912/3012 34004KT P6SM FEW015 BKN120 OVC180
     FM291400 35006KT P6SM BKN050 BKN120
     FM291800 36007KT P6SM VCSH SCT050 BKN120
     FM292100 34006KT P6SM SCT120 BKN200
     FM300400 36004KT P6SM BKN200=

USA.gov is the U.S. government's official web portal to all federal, state and local government web resources and services.